Time;durP1;ratioP1;P1;durP2;ratioP2;P2;SDS_P1;SDS_P2;PMS_P1;PMS_P2;Temp;Humidity;BMP_temperature;BMP_pressure;BME280_temperature;BME280_humidity;BME280_pressure;Samples;Min_cycle;Max_cycle;Signal;HPM_P1;HPM_P2
2024/01/22 00:01:13;;;;;;;10.18;3.58;;;;;;;11.03;100.00;101118.66;5044444;28;20045;-66
2024/01/22 00:03:43;;;;;;;9.00;3.30;;;;;;;10.98;100.00;101127.03;5044221;28;20068;-68
2024/01/22 00:06:20;;;;;;;5.88;3.08;;;;;;;11.05;100.00;101127.44;5024484;28;20597;-66
2024/01/22 00:08:47;;;;;;;7.22;3.03;;;;;;;11.19;100.00;101123.53;5024501;28;20045;-66
2024/01/22 00:11:15;;;;;;;6.00;2.70;;;;;;;11.13;100.00;101122.03;5044617;28;20060;-65
2024/01/22 00:13:48;;;;;;;7.28;3.03;;;;;;;11.25;100.00;101096.69;5054511;28;20057;-67
2024/01/22 00:16:16;;;;;;;9.30;3.22;;;;;;;10.90;100.00;101089.97;5074287;28;20067;-66
2024/01/22 00:18:43;;;;;;;6.88;2.90;;;;;;;11.09;100.00;101090.66;5045444;28;20073;-66
2024/01/22 00:21:11;;;;;;;5.70;2.70;;;;;;;11.04;100.00;101099.06;5030254;28;20053;-66
2024/01/22 00:23:39;;;;;;;6.32;2.60;;;;;;;11.29;100.00;101065.44;5034567;28;20049;-66
2024/01/22 00:26:09;;;;;;;5.38;2.50;;;;;;;11.27;100.00;101061.34;5055475;28;20045;-66
2024/01/22 00:28:39;;;;;;;8.13;2.60;;;;;;;11.26;100.00;101032.94;5048097;28;20068;-67
2024/01/22 00:31:08;;;;;;;5.70;2.42;;;;;;;11.37;100.00;101029.97;5031613;28;20088;-67
2024/01/22 00:33:35;;;;;;;4.93;2.45;;;;;;;11.34;100.00;101045.19;5046038;28;20049;-67
2024/01/22 00:36:03;;;;;;;7.57;2.50;;;;;;;11.32;100.00;101017.94;5050233;28;20051;-66
2024/01/22 00:38:30;;;;;;;5.20;2.15;;;;;;;11.36;100.00;101015.38;5049621;28;20052;-66
2024/01/22 00:40:58;;;;;;;8.55;2.33;;;;;;;11.17;100.00;101029.31;5069840;28;20068;-65
2024/01/22 00:43:25;;;;;;;4.18;1.92;;;;;;;11.22;100.00;101034.72;5051093;28;20058;-67
2024/01/22 00:45:53;;;;;;;6.53;2.28;;;;;;;11.11;100.00;101044.31;5082301;28;20056;-66
2024/01/22 00:48:20;;;;;;;5.82;2.45;;;;;;;11.12;100.00;101032.16;5053292;28;20057;-67
2024/01/22 00:50:47;;;;;;;4.20;2.08;;;;;;;11.12;100.00;101029.41;5049002;28;20056;-65
2024/01/22 00:53:15;;;;;;;6.03;2.33;;;;;;;11.20;100.00;101025.09;5053658;28;20450;-65
2024/01/22 00:55:42;;;;;;;4.47;2.05;;;;;;;11.09;100.00;101048.50;5049386;28;20059;-65
2024/01/22 00:58:11;;;;;;;5.32;2.20;;;;;;;11.02;100.00;101037.91;5049194;28;20388;-66
2024/01/22 01:00:38;;;;;;;5.03;1.90;;;;;;;11.18;100.00;101027.34;5062965;28;20487;-66
2024/01/22 01:03:05;;;;;;;5.03;2.10;;;;;;;11.25;100.00;101042.34;5069175;28;20060;-66
2024/01/22 01:05:32;;;;;;;6.72;2.47;;;;;;;11.21;100.00;101044.09;5066380;28;20061;-66
2024/01/22 01:08:00;;;;;;;5.95;2.17;;;;;;;11.50;100.00;101040.13;5069004;28;20060;-66
2024/01/22 01:10:28;;;;;;;5.65;2.00;;;;;;;11.35;100.00;101031.09;5050859;28;20045;-66
2024/01/22 01:13:06;;;;;;;5.85;2.20;;;;;;;11.09;100.00;101035.53;5040090;28;20057;-67
2024/01/22 01:15:33;;;;;;;3.70;1.85;;;;;;;11.25;100.00;101047.88;5046894;28;20057;-65
2024/01/22 01:18:01;;;;;;;4.68;2.03;;;;;;;11.24;100.00;101021.41;5066130;28;20056;-67
2024/01/22 01:20:29;;;;;;;4.82;1.83;;;;;;;11.46;100.00;101022.56;5047785;28;20064;-66
2024/01/22 01:22:56;;;;;;;6.70;2.03;;;;;;;11.37;100.00;101032.72;5048402;28;20056;-66
2024/01/22 01:25:26;;;;;;;7.00;1.92;;;;;;;11.52;100.00;101035.13;5045720;28;20067;-66
2024/01/22 01:27:54;;;;;;;6.18;1.90;;;;;;;11.42;100.00;101027.88;5047897;28;20056;-67
2024/01/22 01:30:22;;;;;;;7.10;2.28;;;;;;;11.50;100.00;101020.81;4995719;28;20049;-64
2024/01/22 01:32:56;;;;;;;6.85;1.90;;;;;;;11.55;100.00;101043.59;5017698;28;20042;-66
2024/01/22 01:35:31;;;;;;;4.50;2.00;;;;;;;11.61;99.99;101041.53;5046813;28;20072;-67
2024/01/22 01:38:39;;;;;;;7.97;1.83;;;;;;;11.57;100.00;101035.00;5016405;28;20053;-67
2024/01/22 01:41:43;;;;;;;5.30;1.90;;;;;;;11.63;99.89;101025.50;5015474;28;20049;-65
2024/01/22 01:44:32;;;;;;;3.88;2.03;;;;;;;11.57;99.99;100999.97;5027849;28;20489;-68
2024/01/22 01:47:42;;;;;;;5.95;2.17;;;;;;;11.62;100.00;101021.09;5062037;28;20061;-67
2024/01/22 01:54:48;;;;;;;7.50;1.98;;;;;;;11.42;99.67;101007.78;5045374;28;20060;-67
2024/01/22 01:57:35;;;;;;;5.65;2.35;;;;;;;11.60;100.00;100982.78;5057251;28;20563;-66
2024/01/22 02:00:16;;;;;;;4.15;1.67;;;;;;;11.56;98.88;100984.53;5068431;28;20058;-66
2024/01/22 02:02:50;;;;;;;10.30;2.55;;;;;;;11.56;99.30;100992.78;5027664;28;20064;-66
2024/01/22 02:05:21;;;;;;;5.78;1.92;;;;;;;11.66;99.40;100975.22;5028140;28;20401;-66
2024/01/22 02:07:52;;;;;;;5.03;1.75;;;;;;;11.75;98.73;100978.84;5017211;28;20057;-67
2024/01/22 02:10:52;;;;;;;3.75;1.85;;;;;;;11.69;98.70;100977.34;5016544;28;20049;-67
2024/01/22 02:13:36;;;;;;;5.03;1.95;;;;;;;11.94;96.96;100968.41;5063477;28;20067;-67
2024/01/22 02:16:11;;;;;;;3.90;1.55;;;;;;;11.96;97.18;100974.44;5075792;28;20055;-66
2024/01/22 02:18:47;;;;;;;4.93;1.60;;;;;;;11.86;95.57;100971.94;5026308;28;20056;-66
2024/01/22 02:21:18;;;;;;;5.38;1.88;;;;;;;11.90;96.45;100967.41;5047494;28;20487;-67
2024/01/22 02:23:49;;;;;;;4.72;1.40;;;;;;;11.97;96.42;100968.59;5050214;28;20056;-67
2024/01/22 02:27:05;;;;;;;5.55;1.75;;;;;;;12.21;95.75;100980.09;5048642;28;20063;-67
2024/01/22 02:30:33;;;;;;;5.38;1.88;;;;;;;12.13;94.87;100980.84;4990835;28;20447;-67
2024/01/22 02:33:08;;;;;;;4.22;1.60;;;;;;;12.23;93.96;100988.06;5030165;28;20067;-67
2024/01/22 02:35:36;;;;;;;5.30;1.50;;;;;;;12.16;94.61;100949.03;5047393;28;20056;-66
2024/01/22 02:38:03;;;;;;;3.10;1.50;;;;;;;12.03;94.52;100942.47;5043490;28;20045;-66
2024/01/22 02:40:31;;;;;;;4.10;1.70;;;;;;;12.13;93.76;100930.34;5037640;28;20060;-67
2024/01/22 02:42:58;;;;;;;2.97;1.35;;;;;;;12.18;93.44;100927.44;5067299;28;20063;-66
2024/01/22 02:45:25;;;;;;;8.65;2.17;;;;;;;12.32;92.80;100934.50;5063732;28;20049;-66
2024/01/22 02:47:52;;;;;;;5.30;1.50;;;;;;;12.15;92.02;100937.16;5046709;28;20052;-65
2024/01/22 02:50:20;;;;;;;6.03;1.52;;;;;;;12.16;93.33;100926.94;5043500;28;20066;-67
2024/01/22 02:54:04;;;;;;;3.22;1.48;;;;;;;12.17;93.46;100923.84;5051256;28;20045;-66
2024/01/22 02:57:34;;;;;;;4.70;1.70;;;;;;;12.22;92.63;100929.25;5019157;28;20041;-67
2024/01/22 03:01:14;;;;;;;5.13;1.67;;;;;;;12.26;91.86;100924.72;5051115;28;20041;-66
2024/01/22 03:03:50;;;;;;;2.60;1.27;;;;;;;12.07;91.71;100929.66;5049683;28;20057;-66
2024/01/22 03:06:19;;;;;;;5.32;1.55;;;;;;;12.12;92.28;100925.94;5046965;28;20048;-66
2024/01/22 03:09:10;;;;;;;5.60;1.65;;;;;;;12.10;92.53;100926.25;5082112;28;20434;-66
2024/01/22 03:11:38;;;;;;;4.60;1.80;;;;;;;12.11;90.75;100929.84;5043872;28;20115;-66
2024/01/22 03:14:05;;;;;;;3.70;1.40;;;;;;;12.12;90.49;100917.66;5044960;28;20845;-66
2024/01/22 03:16:41;;;;;;;3.28;1.30;;;;;;;12.21;91.56;100921.28;5046968;28;20054;-65
2024/01/22 03:19:08;;;;;;;3.20;1.27;;;;;;;12.34;89.90;100896.28;5047801;28;20061;-67
2024/01/22 03:21:35;;;;;;;4.50;1.63;;;;;;;12.14;89.25;100898.84;5044815;28;20045;-66
2024/01/22 03:24:05;;;;;;;3.33;1.40;;;;;;;12.36;90.30;100874.69;5060008;28;20056;-66
2024/01/22 03:26:36;;;;;;;4.18;1.60;;;;;;;12.30;89.41;100880.69;5060969;28;20124;-66
2024/01/22 03:29:03;;;;;;;3.45;1.40;;;;;;;12.32;88.95;100878.44;5059669;28;20052;-65
2024/01/22 03:31:32;;;;;;;4.13;1.45;;;;;;;12.22;89.71;100887.81;5052199;28;20403;-65
2024/01/22 03:34:11;;;;;;;2.63;1.10;;;;;;;12.38;90.01;100858.63;5047267;28;20065;-68
2024/01/22 03:36:38;;;;;;;5.88;1.65;;;;;;;12.22;91.14;100878.72;5046497;28;20415;-67
2024/01/22 03:39:06;;;;;;;3.38;1.40;;;;;;;12.25;91.92;100842.19;5058849;28;20582;-66
2024/01/22 03:41:35;;;;;;;3.25;1.23;;;;;;;12.15;92.00;100865.38;5065840;28;20059;-68
2024/01/22 03:44:04;;;;;;;4.55;1.40;;;;;;;11.98;92.83;100846.00;5063779;28;20052;-68
2024/01/22 03:46:32;;;;;;;3.78;1.50;;;;;;;12.11;92.00;100847.00;5045614;28;20056;-66
2024/01/22 03:48:59;;;;;;;4.65;1.60;;;;;;;12.06;92.93;100845.22;5046132;28;20053;-67
2024/01/22 03:51:26;;;;;;;3.38;1.40;;;;;;;12.15;92.47;100864.56;5044614;28;20048;-65
2024/01/22 03:53:54;;;;;;;4.25;1.50;;;;;;;12.11;92.17;100866.34;5046081;28;20526;-66
2024/01/22 03:56:23;;;;;;;4.32;1.55;;;;;;;12.11;92.59;100838.72;5044427;28;20060;-66
2024/01/22 03:58:51;;;;;;;3.40;1.50;;;;;;;12.20;90.92;100850.63;5051455;28;20608;-66
2024/01/22 04:01:21;;;;;;;6.05;1.80;;;;;;;12.22;90.92;100857.44;5024165;28;20053;-66
2024/01/22 04:03:50;;;;;;;3.03;1.30;;;;;;;12.22;91.24;100843.63;5057572;28;20542;-67
2024/01/22 04:06:18;;;;;;;4.13;1.40;;;;;;;12.13;91.06;100842.00;5040395;28;20069;-67
2024/01/22 04:08:45;;;;;;;5.35;1.70;;;;;;;12.24;90.46;100829.50;5025611;28;20292;-67
2024/01/22 04:11:13;;;;;;;4.60;1.75;;;;;;;12.29;90.89;100827.41;5026895;28;20056;-66
2024/01/22 04:13:40;;;;;;;6.13;1.48;;;;;;;12.19;90.67;100835.16;5045991;28;20053;-67
2024/01/22 04:16:12;;;;;;;4.68;1.23;;;;;;;12.12;91.14;100819.06;5040644;28;20061;-67
2024/01/22 04:18:41;;;;;;;3.00;1.42;;;;;;;11.94;91.91;100814.63;5048400;28;20049;-66
2024/01/22 04:21:09;;;;;;;5.43;1.40;;;;;;;12.04;92.24;100838.38;5018923;28;20056;-62
2024/01/22 04:23:36;;;;;;;2.53;1.20;;;;;;;12.21;90.95;100830.97;5061004;28;20049;-63
2024/01/22 04:26:05;;;;;;;4.30;1.38;;;;;;;12.28;91.26;100827.72;5060094;28;20045;-63
2024/01/22 04:28:36;;;;;;;6.70;1.60;;;;;;;12.38;91.06;100835.69;5034869;28;20057;-63
2024/01/22 04:31:03;;;;;;;4.22;1.30;;;;;;;12.31;91.11;100844.47;5051608;28;20064;-63
2024/01/22 04:33:30;;;;;;;3.80;1.23;;;;;;;12.27;89.85;100839.91;5032462;28;20061;-62
2024/01/22 04:36:01;;;;;;;3.28;1.33;;;;;;;12.37;90.81;100831.31;5033729;28;20048;-64
2024/01/22 04:38:30;;;;;;;4.82;1.58;;;;;;;12.30;91.53;100826.28;5045916;28;20061;-62
2024/01/22 04:40:57;;;;;;;4.13;1.25;;;;;;;12.42;91.26;100809.06;5046008;28;20051;-63
2024/01/22 04:43:24;;;;;;;3.35;1.20;;;;;;;12.43;90.90;100814.25;5059231;28;20049;-63
2024/01/22 04:45:51;;;;;;;3.50;1.40;;;;;;;12.34;91.77;100796.06;5058388;28;20049;-63
2024/01/22 04:48:19;;;;;;;4.47;1.17;;;;;;;12.07;91.64;100810.94;5045654;28;20056;-62
2024/01/22 04:50:46;;;;;;;5.28;1.52;;;;;;;12.39;91.50;100795.91;5053188;28;20049;-62
2024/01/22 04:53:13;;;;;;;3.47;1.33;;;;;;;12.37;90.98;100810.03;5065952;28;20063;-63
2024/01/22 04:55:41;;;;;;;4.80;1.40;;;;;;;12.36;90.82;100799.31;5044448;28;20053;-62
2024/01/22 04:58:08;;;;;;;6.25;1.60;;;;;;;12.27;91.70;100807.56;5063757;28;20060;-63
2024/01/22 05:00:35;;;;;;;4.75;1.45;;;;;;;12.33;91.10;100789.72;5029723;28;20060;-62
2024/01/22 05:03:12;;;;;;;3.78;1.40;;;;;;;12.55;90.36;100819.16;5035715;28;20044;-65
2024/01/22 05:05:50;;;;;;;3.55;1.33;;;;;;;12.33;90.51;100820.09;5032598;28;20033;-64
2024/01/22 05:08:23;;;;;;;3.10;1.33;;;;;;;12.44;91.45;100810.38;5015163;28;20061;-63
2024/01/22 05:11:01;;;;;;;2.95;1.15;;;;;;;12.26;91.74;100811.47;5070997;28;20056;-64
2024/01/22 05:13:56;;;;;;;6.22;1.45;;;;;;;12.41;91.67;100811.00;5053728;28;20044;-67
2024/01/22 05:20:31;;;;;;;4.00;1.35;;;;;;;12.44;93.01;100799.31;5048726;28;20061;-64
2024/01/22 05:23:23;;;;;;;2.70;1.55;;;;;;;12.48;93.11;100797.53;5023060;28;20054;-65
2024/01/22 05:26:10;;;;;;;3.08;1.17;;;;;;;12.34;92.57;100798.81;5037404;28;20061;-64
2024/01/22 05:28:40;;;;;;;4.57;1.75;;;;;;;12.29;93.82;100790.69;5029321;28;20067;-63
2024/01/22 05:31:14;;;;;;;5.03;1.40;;;;;;;12.29;93.59;100798.97;5061772;28;20052;-65
2024/01/22 05:33:46;;;;;;;5.45;1.48;;;;;;;12.19;94.98;100786.28;5034957;28;20045;-64
2024/01/22 05:36:14;;;;;;;3.58;1.25;;;;;;;12.27;94.79;100801.25;5049583;28;20587;-64
2024/01/22 05:38:45;;;;;;;5.18;1.42;;;;;;;12.23;94.23;100790.03;5050125;28;20504;-65
2024/01/22 05:41:20;;;;;;;3.90;1.27;;;;;;;12.33;94.82;100792.47;5033774;28;20049;-65
2024/01/22 05:43:54;;;;;;;4.80;1.50;;;;;;;12.28;95.73;100786.28;5062912;28;20044;-63
2024/01/22 05:46:23;;;;;;;2.92;1.17;;;;;;;12.27;96.62;100790.22;5059534;28;20052;-63
2024/01/22 05:48:55;;;;;;;5.65;1.30;;;;;;;12.22;98.02;100784.84;5017049;28;20052;-64
2024/01/22 05:51:29;;;;;;;2.35;1.33;;;;;;;12.32;98.41;100768.78;5049207;28;20057;-63
2024/01/22 05:54:00;;;;;;;4.55;1.30;;;;;;;12.38;97.57;100789.56;5035947;28;20132;-64
2024/01/22 05:56:32;;;;;;;;;;;;;;;12.31;97.39;100788.41;5051120;28;20045;-63
2024/01/22 05:59:07;;;;;;;4.00;1.40;;;;;;;12.21;98.62;100784.00;5061217;28;19925;-65
2024/01/22 06:01:47;;;;;;;6.32;1.40;;;;;;;12.22;98.37;100769.06;5043483;28;20053;-65
2024/01/22 06:04:17;;;;;;;5.07;1.35;;;;;;;12.32;97.93;100773.47;5080499;28;20064;-63
2024/01/22 06:06:45;;;;;;;5.00;1.73;;;;;;;12.38;96.94;100766.63;5048391;28;20060;-63
2024/01/22 06:09:16;;;;;;;4.50;1.38;;;;;;;12.19;97.96;100778.00;5046700;28;20075;-63
2024/01/22 06:11:46;;;;;;;3.40;1.40;;;;;;;12.27;98.27;100785.47;5045838;28;20057;-62
2024/01/22 06:14:16;;;;;;;2.53;1.52;;;;;;;12.25;98.60;100782.25;5042614;28;20045;-63
2024/01/22 06:16:46;;;;;;;7.85;1.60;;;;;;;12.19;98.15;100778.00;5040980;28;20049;-64
2024/01/22 06:19:13;;;;;;;2.80;1.40;;;;;;;12.37;98.22;100787.94;5027305;28;20522;-63
2024/01/22 06:21:41;;;;;;;4.82;1.27;;;;;;;12.23;98.32;100786.44;5067652;28;20057;-64
2024/01/22 06:24:08;;;;;;;5.00;1.60;;;;;;;12.26;98.56;100788.56;5056950;28;20044;-63
2024/01/22 06:26:35;;;;;;;6.10;1.67;;;;;;;12.19;97.95;100788.22;5047787;28;20053;-63
2024/01/22 06:29:03;;;;;;;4.72;1.50;;;;;;;12.27;98.74;100787.44;5037223;28;20057;-64
2024/01/22 06:31:30;;;;;;;4.18;1.30;;;;;;;12.35;96.94;100781.94;5046130;28;20061;-63
2024/01/22 06:33:57;;;;;;;4.28;1.38;;;;;;;12.02;98.44;100782.69;5047649;28;20045;-64
2024/01/22 06:36:28;;;;;;;3.70;1.50;;;;;;;12.06;99.28;100776.19;5047500;28;20523;-64
2024/01/22 06:38:55;;;;;;;4.22;1.65;;;;;;;11.93;100.00;100777.13;5044452;28;20061;-63
2024/01/22 06:41:23;;;;;;;5.18;1.45;;;;;;;12.11;100.00;100767.75;5046330;28;20048;-63
2024/01/22 06:43:51;;;;;;;7.25;1.27;;;;;;;12.19;99.85;100780.75;5045136;28;20056;-63
2024/01/22 06:46:18;;;;;;;5.50;1.50;;;;;;;12.16;99.20;100750.22;5062268;28;20064;-65
2024/01/22 06:48:46;;;;;;;3.28;1.50;;;;;;;12.33;98.60;100778.66;5059299;28;20502;-63
2024/01/22 06:51:13;;;;;;;3.42;1.38;;;;;;;12.17;98.52;100758.19;5064320;28;20060;-63
2024/01/22 06:53:41;;;;;;;5.75;1.50;;;;;;;12.11;99.91;100778.81;5047481;28;20049;-63
2024/01/22 06:56:08;;;;;;;3.78;1.50;;;;;;;11.99;100.00;100764.00;5047110;28;20063;-65
2024/01/22 06:58:36;;;;;;;3.70;1.35;;;;;;;11.86;100.00;100773.22;5078764;28;20060;-63
2024/01/22 07:01:04;;;;;;;3.72;1.40;;;;;;;11.92;100.00;100761.72;5046762;28;20332;-63
2024/01/22 07:03:32;;;;;;;3.47;1.48;;;;;;;12.29;100.00;100768.59;5045714;28;20049;-64
2024/01/22 07:05:59;;;;;;;3.00;1.40;;;;;;;12.13;100.00;100773.75;5061649;28;20586;-63
2024/01/22 07:08:27;;;;;;;4.68;1.70;;;;;;;12.07;100.00;100764.00;5047256;28;20045;-63
2024/01/22 07:10:54;;;;;;;6.40;1.50;;;;;;;12.01;100.00;100776.31;5046947;28;20053;-63
2024/01/22 07:13:23;;;;;;;3.17;1.38;;;;;;;12.04;100.00;100778.47;5066946;28;20111;-64
2024/01/22 07:15:50;;;;;;;3.05;1.52;;;;;;;12.18;100.00;100786.59;5045613;28;20067;-65
2024/01/22 07:18:24;;;;;;;4.10;1.48;;;;;;;11.95;100.00;100769.34;5045447;28;20571;-64
2024/01/22 07:20:53;;;;;;;3.03;1.40;;;;;;;11.90;100.00;100782.47;5059935;28;20052;-63
2024/01/22 07:23:20;;;;;;;3.28;1.50;;;;;;;11.99;100.00;100773.09;5058269;28;20672;-64
2024/01/22 07:25:48;;;;;;;3.03;1.30;;;;;;;11.97;100.00;100774.53;5046444;28;20691;-64
2024/01/22 07:28:16;;;;;;;4.03;1.60;;;;;;;12.01;100.00;100776.31;5046335;28;20052;-63
2024/01/22 07:30:43;;;;;;;4.75;1.85;;;;;;;12.11;100.00;100765.00;5060220;28;20151;-62
2024/01/22 07:33:10;;;;;;;4.28;1.60;;;;;;;12.23;100.00;100770.72;5045308;28;20057;-64
2024/01/22 07:35:38;;;;;;;3.95;1.52;;;;;;;12.27;100.00;100779.16;5047408;28;20214;-62
2024/01/22 07:38:05;;;;;;;7.35;1.65;;;;;;;12.15;100.00;100788.06;5066141;28;20123;-63
2024/01/22 07:40:33;;;;;;;2.97;1.50;;;;;;;12.34;100.00;100791.34;5066538;28;20045;-62
2024/01/22 07:43:02;;;;;;;5.88;1.70;;;;;;;12.38;100.00;100789.56;5057310;28;20102;-64
2024/01/22 07:45:29;;;;;;;4.38;1.33;;;;;;;12.44;100.00;100802.09;5046415;28;20045;-63
2024/01/22 07:47:56;;;;;;;4.93;1.42;;;;;;;12.20;100.00;100804.47;5040008;28;20377;-63
2024/01/22 07:50:24;;;;;;;3.15;1.52;;;;;;;12.25;100.00;100826.44;5026290;28;20684;-64
2024/01/22 07:52:51;;;;;;;5.15;1.60;;;;;;;12.44;100.00;100818.66;5026000;28;20060;-62
2024/01/22 07:55:18;;;;;;;4.78;1.30;;;;;;;12.61;100.00;100826.16;5033753;28;20048;-67
2024/01/22 07:57:46;;;;;;;7.22;1.65;;;;;;;12.46;100.00;100819.13;5056095;28;20056;-66
2024/01/22 08:00:14;;;;;;;5.75;1.42;;;;;;;12.50;100.00;100837.84;5044563;28;20768;-67
2024/01/22 08:02:41;;;;;;;10.02;2.00;;;;;;;12.52;100.00;100846.63;5028693;28;20583;-66
2024/01/22 08:05:13;;;;;;;5.10;1.30;;;;;;;12.57;100.00;100850.03;5033147;28;20068;-67
2024/01/22 08:07:42;;;;;;;5.75;1.70;;;;;;;12.78;100.00;100842.72;5036502;28;20064;-68
2024/01/22 08:10:10;;;;;;;4.03;1.60;;;;;;;12.36;100.00;100846.28;5034897;28;20052;-70
2024/01/22 08:12:37;;;;;;;5.43;1.48;;;;;;;12.50;100.00;100838.63;5040089;28;20079;-69
2024/01/22 08:15:05;;;;;;;4.88;1.70;;;;;;;12.66;100.00;100856.38;5033082;28;20057;-69
2024/01/22 08:17:32;;;;;;;4.25;1.60;;;;;;;12.56;100.00;100858.63;5038730;28;20041;-68
2024/01/22 08:19:59;;;;;;;3.38;1.15;;;;;;;12.70;100.00;100862.91;5031289;28;20052;-69
2024/01/22 08:22:27;;;;;;;3.80;1.27;;;;;;;12.97;100.00;100864.53;5038790;28;20061;-71
2024/01/22 08:24:54;;;;;;;2.17;1.08;;;;;;;12.75;100.00;100868.25;5049366;28;20049;-67
2024/01/22 08:27:21;;;;;;;4.93;1.27;;;;;;;12.80;100.00;100881.91;5045005;28;20056;-66
2024/01/22 08:29:49;;;;;;;7.63;1.50;;;;;;;12.77;100.00;100887.28;5045386;28;20045;-68
2024/01/22 08:32:16;;;;;;;3.03;1.30;;;;;;;12.58;100.00;100897.81;5050955;28;20056;-69
2024/01/22 08:34:43;;;;;;;5.88;1.60;;;;;;;12.69;100.00;100910.19;5038072;28;20053;-68
2024/01/22 08:37:11;;;;;;;3.72;1.25;;;;;;;12.56;100.00;100919.44;5048040;28;20040;-70
2024/01/22 08:39:38;;;;;;;7.10;1.77;;;;;;;12.58;100.00;100915.22;5041706;28;20057;-69
2024/01/22 08:42:05;;;;;;;6.78;2.40;;;;;;;12.74;100.00;100923.88;5044651;28;20103;-68
2024/01/22 08:44:33;;;;;;;7.10;1.85;;;;;;;12.68;100.00;100925.97;5041660;28;20064;-69
2024/01/22 08:47:00;;;;;;;6.78;1.73;;;;;;;12.75;100.00;100929.06;5033101;28;20591;-67
2024/01/22 08:49:29;;;;;;;11.48;2.20;;;;;;;12.88;100.00;100928.13;5035343;28;20076;-69
2024/01/22 08:51:56;;;;;;;6.57;1.73;;;;;;;12.88;100.00;100928.13;5047397;28;20060;-72
2024/01/22 08:54:24;;;;;;;6.78;1.42;;;;;;;12.88;100.00;100936.41;5037371;28;20056;-69
2024/01/22 08:56:51;;;;;;;5.82;1.20;;;;;;;13.09;100.00;100940.19;5042406;28;20045;-68
2024/01/22 08:59:20;;;;;;;5.03;1.40;;;;;;;13.03;100.00;100941.50;5045901;28;20052;-70
2024/01/22 09:01:47;;;;;;;3.17;0.90;;;;;;;12.94;100.00;100935.09;5041780;28;20064;-69
2024/01/22 09:04:14;;;;;;;3.83;1.10;;;;;;;12.91;100.00;100933.00;5037938;28;20045;-68
2024/01/22 09:06:42;;;;;;;4.68;1.27;;;;;;;12.95;100.00;100935.94;5035762;28;20060;-67
2024/01/22 09:09:09;;;;;;;4.00;1.00;;;;;;;13.08;100.00;100930.28;5046349;28;20056;-69
2024/01/22 09:11:37;;;;;;;5.78;1.40;;;;;;;13.14;100.00;100936.47;5040944;28;20053;-67
2024/01/22 09:14:04;;;;;;;5.38;1.30;;;;;;;13.17;100.00;100939.38;5047420;28;20045;-67
2024/01/22 09:16:31;;;;;;;6.30;1.65;;;;;;;13.26;100.00;100936.63;5060741;28;20053;-68
2024/01/22 09:18:59;;;;;;;10.85;2.40;;;;;;;13.32;100.00;100954.66;5050778;28;20053;-69
2024/01/22 09:21:38;;;;;;;8.63;1.80;;;;;;;13.28;100.00;100962.84;5050125;28;20049;-69
2024/01/22 09:24:27;;;;;;;7.25;1.77;;;;;;;13.29;100.00;100975.50;5044155;28;20053;-70
2024/01/22 09:26:55;;;;;;;11.18;1.75;;;;;;;13.36;100.00;100978.59;5018940;28;20496;-68
2024/01/22 09:29:23;;;;;;;10.02;1.92;;;;;;;13.40;99.45;100976.00;5056130;28;20048;-69
2024/01/22 09:31:50;;;;;;;8.35;1.95;;;;;;;13.56;98.45;100975.16;5045848;28;20063;-67
2024/01/22 09:34:17;;;;;;;8.80;1.88;;;;;;;13.71;97.53;100971.09;5049150;28;20500;-67
2024/01/22 09:36:45;;;;;;;12.23;2.30;;;;;;;13.26;99.00;100970.63;5038063;28;20052;-69
2024/01/22 09:39:23;;;;;;;13.48;2.78;;;;;;;13.25;100.00;100980.06;5046532;28;20128;-69
2024/01/22 09:42:00;;;;;;;12.57;2.35;;;;;;;13.59;99.42;100987.56;5047532;28;20507;-62
2024/01/22 09:44:28;;;;;;;16.95;2.78;;;;;;;13.50;96.44;100982.03;5029650;28;20045;-62
2024/01/22 09:46:56;;;;;;;10.55;3.03;;;;;;;13.62;96.83;100995.19;5038104;28;20053;-63
2024/01/22 09:49:23;;;;;;;12.48;2.75;;;;;;;13.61;96.22;100990.00;5031124;28;20064;-63
2024/01/22 09:51:51;;;;;;;18.60;3.10;;;;;;;13.76;94.69;100993.06;5038895;28;20053;-63
2024/01/22 09:54:20;;;;;;;16.83;3.55;;;;;;;13.83;94.22;100995.31;5043906;28;20080;-62
2024/01/22 09:56:52;;;;;;;17.33;3.10;;;;;;;13.96;94.37;101002.66;5042024;28;20143;-63
2024/01/22 09:59:25;;;;;;;15.32;3.38;;;;;;;14.05;93.60;100997.91;5045219;28;20061;-66
2024/01/22 10:01:53;;;;;;;17.80;3.78;;;;;;;14.02;92.22;101007.69;5048507;28;20377;-63
2024/01/22 10:04:23;;;;;;;21.45;3.95;;;;;;;14.04;90.12;101010.13;5048063;28;20056;-63
2024/01/22 10:06:51;;;;;;;19.33;4.18;;;;;;;13.98;90.04;101019.75;5039366;28;20060;-62
2024/01/22 10:09:19;;;;;;;24.52;4.78;;;;;;;13.97;90.40;101010.63;5039572;28;20080;-62
2024/01/22 10:11:46;;;;;;;24.50;3.97;;;;;;;13.95;91.03;101014.84;5048566;28;20052;-62
2024/01/22 10:14:14;;;;;;;19.42;4.03;;;;;;;13.97;90.65;101015.34;5047090;28;20051;-62
2024/01/22 10:16:41;;;;;;;18.60;4.10;;;;;;;13.97;89.74;101007.03;5045094;28;20052;-62
2024/01/22 10:19:09;;;;;;;18.60;4.35;;;;;;;13.82;86.70;101021.41;5069478;28;20064;-62
2024/01/22 10:21:38;;;;;;;25.10;3.97;;;;;;;13.84;87.60;101002.50;5057993;28;20507;-61
2024/01/22 10:24:07;;;;;;;23.13;5.10;;;;;;;13.88;86.36;101020.09;5041783;28;20045;-61
2024/01/22 10:26:35;;;;;;;26.10;4.50;;;;;;;13.93;84.70;101015.19;5021999;28;20084;-61
2024/01/22 10:29:12;;;;;;;28.27;5.10;;;;;;;13.66;82.64;101029.41;5052754;28;20056;-62
2024/01/22 10:31:56;;;;;;;25.70;4.82;;;;;;;13.73;82.54;101026.94;5045929;28;20068;-62
2024/01/22 10:34:30;;;;;;;25.98;5.35;;;;;;;13.62;79.65;101031.19;5044427;28;20063;-62
2024/01/22 10:37:07;;;;;;;26.27;5.07;;;;;;;13.75;80.03;101049.59;5055897;28;20515;-62
2024/01/22 10:39:39;;;;;;;24.85;5.45;;;;;;;13.88;79.95;101031.19;5040292;28;20054;-61
2024/01/22 10:42:17;;;;;;;33.05;6.78;;;;;;;13.66;77.46;101039.66;5036741;28;20061;-62
2024/01/22 10:44:46;;;;;;;26.50;5.03;;;;;;;13.81;77.72;101044.72;5038619;28;20049;-62
2024/01/22 10:47:15;;;;;;;29.38;6.22;;;;;;;13.93;77.46;101050.38;5034107;28;20049;-61
2024/01/22 10:49:45;;;;;;;34.40;5.63;;;;;;;13.87;79.11;101046.97;5044879;28;20063;-61
2024/01/22 10:52:15;;;;;;;28.63;5.40;;;;;;;13.79;77.71;101050.53;5030597;28;20065;-62
2024/01/22 10:54:43;;;;;;;31.23;6.15;;;;;;;13.96;77.53;101045.00;5046773;28;20049;-62
2024/01/22 10:57:41;;;;;;;32.58;6.38;;;;;;;13.83;78.06;101043.22;5027127;28;20469;-62
2024/01/22 11:00:10;;;;;;;30.85;5.95;;;;;;;14.07;78.79;101026.09;5034588;28;20124;-61
2024/01/22 11:02:43;;;;;;;36.92;6.35;;;;;;;13.93;76.37;101022.69;5043349;28;20056;-62
2024/01/22 11:05:14;;;;;;;36.95;6.93;;;;;;;13.76;77.25;101029.06;5038126;28;20053;-62
2024/01/22 11:07:44;;;;;;;36.00;6.45;;;;;;;13.68;77.75;101018.00;5043377;28;20061;-62
2024/01/22 11:10:12;;;;;;;37.45;6.22;;;;;;;13.88;78.68;101014.56;5044928;28;20692;-63
2024/01/22 11:12:50;;;;;;;28.33;6.22;;;;;;;13.77;77.71;101052.03;5042244;28;20241;-61
2024/01/22 11:15:18;;;;;;;28.92;6.95;;;;;;;13.64;77.87;101039.16;5041478;28;20511;-64
2024/01/22 11:17:49;;;;;;;26.98;6.47;;;;;;;13.55;77.07;101037.22;5037454;28;20404;-65
2024/01/22 11:20:18;;;;;;;35.35;6.65;;;;;;;13.71;77.36;101032.00;5053813;28;20491;-63
2024/01/22 11:23:01;;;;;;;59.53;16.58;;;;;;;14.07;77.37;101026.88;5043245;28;20060;-63
2024/01/22 11:25:29;;;;;;;34.28;6.70;;;;;;;13.91;74.83;101028.56;5037968;28;20050;-64
2024/01/22 11:28:17;;;;;;;34.53;6.88;;;;;;;13.97;76.52;101041.09;5039534;28;20083;-63
2024/01/22 11:30:47;;;;;;;32.28;5.88;;;;;;;13.81;76.15;101055.78;5039451;28;20057;-64
2024/01/22 11:33:21;;;;;;;31.40;6.80;;;;;;;13.74;74.74;101061.00;5037660;28;20037;-63
2024/01/22 11:35:50;;;;;;;35.53;6.75;;;;;;;13.64;74.25;101066.84;5045079;28;20110;-63
2024/01/22 11:38:36;;;;;;;33.17;6.93;;;;;;;13.52;74.61;101067.50;5025056;28;20061;-63
2024/01/22 11:41:04;;;;;;;39.83;7.22;;;;;;;13.66;75.00;101070.91;5042695;28;20053;-64
2024/01/22 11:43:31;;;;;;;30.02;5.90;;;;;;;13.56;77.17;101085.09;5042306;28;20067;-64
2024/01/22 11:46:09;;;;;;;40.97;6.85;;;;;;;13.44;79.20;101074.63;5028065;28;20041;-64
2024/01/22 11:48:37;;;;;;;35.60;7.07;;;;;;;13.40;85.58;101072.84;5039626;28;20057;-64
2024/01/22 11:51:05;;;;;;;37.80;7.35;;;;;;;13.01;86.45;101062.66;5041459;28;20048;-62